createdAt,value
2023-01-25T00:01:45.881Z,64.49
2023-01-25T00:04:12.540Z,64.79
2023-01-25T00:06:39.223Z,64.87
2023-01-25T00:09:05.838Z,64.69
2023-01-25T00:11:32.744Z,64.34
2023-01-25T00:13:59.575Z,64.43
2023-01-25T00:16:26.383Z,64.53
2023-01-25T00:18:53.248Z,63.97
2023-01-25T00:21:19.884Z,64.44
2023-01-25T00:23:46.607Z,64.23
2023-01-25T00:26:13.320Z,64.38
2023-01-25T00:28:40.027Z,64.33
2023-01-25T00:31:06.660Z,64.24
2023-01-25T00:33:33.407Z,64.56
2023-01-25T00:36:00.061Z,64.18
2023-01-25T00:38:26.715Z,64.62
2023-01-25T00:40:53.374Z,64.69
2023-01-25T00:43:20.055Z,63.83
2023-01-25T00:45:46.744Z,64.69
2023-01-25T00:48:13.372Z,64.07
2023-01-25T00:50:40.046Z,63.86
2023-01-25T00:53:06.712Z,64.36
2023-01-25T00:55:33.404Z,64.32
2023-01-25T00:58:00.125Z,63.90
2023-01-25T01:00:26.800Z,64.46
2023-01-25T01:02:53.416Z,63.46
2023-01-25T01:05:20.125Z,64.09
2023-01-25T01:07:46.774Z,64.54
2023-01-25T01:10:13.387Z,64.23
2023-01-25T01:12:40.088Z,64.30
2023-01-25T01:15:06.886Z,63.12
2023-01-25T01:17:33.728Z,64.01
2023-01-25T01:20:00.400Z,64.36
2023-01-25T01:22:27.059Z,63.86
2023-01-25T01:24:54.714Z,64.12
2023-01-25T01:27:21.348Z,64.38
2023-01-25T01:29:47.992Z,64.75
2023-01-25T01:32:14.805Z,64.30
2023-01-25T01:34:41.557Z,64.51
2023-01-25T01:37:08.235Z,64.18
2023-01-25T01:39:34.948Z,64.08
2023-01-25T01:42:01.582Z,64.33
2023-01-25T01:44:28.252Z,64.63
2023-01-25T01:46:54.909Z,64.45
2023-01-25T01:49:21.586Z,63.98
2023-01-25T01:51:48.222Z,63.81
2023-01-25T01:54:14.838Z,63.67
2023-01-25T01:56:41.503Z,64.33
2023-01-25T01:59:08.180Z,64.40
2023-01-25T02:01:34.973Z,64.12
2023-01-25T02:09:31.013Z,63.90
2023-01-25T02:11:57.667Z,64.11
2023-01-25T02:14:24.322Z,63.80
2023-01-25T02:16:50.950Z,64.28
2023-01-25T02:19:17.600Z,64.04
2023-01-25T02:21:44.316Z,63.89
2023-01-25T02:24:11.033Z,64.30
2023-01-25T02:26:37.753Z,64.67
2023-01-25T02:29:04.431Z,64.61
2023-01-25T02:31:31.207Z,64.55
2023-01-25T02:33:57.939Z,64.71
2023-01-25T02:36:24.652Z,64.23
2023-01-25T02:38:51.291Z,64.55
2023-01-25T02:41:17.937Z,64.37
2023-01-25T02:43:44.616Z,64.11
2023-01-25T02:46:11.250Z,64.43
2023-01-25T02:48:37.944Z,64.37
2023-01-25T02:51:04.587Z,64.42
2023-01-25T02:53:31.185Z,63.56
2023-01-25T02:55:58.821Z,64.26
2023-01-25T02:58:25.488Z,64.00
2023-01-25T03:00:52.150Z,64.06
2023-01-25T03:03:18.895Z,64.13
2023-01-25T03:05:45.568Z,63.51
2023-01-25T03:08:12.280Z,63.75
2023-01-25T03:10:38.889Z,64.48
2023-01-25T03:13:05.532Z,64.91
2023-01-25T03:15:32.184Z,64.67
2023-01-25T03:17:58.820Z,64.67
2023-01-25T03:20:25.470Z,64.90
2023-01-25T03:22:52.093Z,63.95
2023-01-25T03:25:18.687Z,63.66
2023-01-25T03:27:45.275Z,64.31
2023-01-25T03:30:11.973Z,64.40
2023-01-25T03:32:38.617Z,63.71
2023-01-25T03:35:05.287Z,63.89
2023-01-25T03:37:31.963Z,63.74
2023-01-25T03:39:58.653Z,64.09
2023-01-25T03:42:25.302Z,63.74
2023-01-25T03:44:51.941Z,65.17
2023-01-25T03:47:18.613Z,65.06
2023-01-25T03:49:45.269Z,65.71
2023-01-25T03:52:11.933Z,65.60
2023-01-25T03:54:38.655Z,65.59
2023-01-25T03:57:05.375Z,65.06
2023-01-25T03:59:32.059Z,64.70
2023-01-25T04:01:58.723Z,65.33
2023-01-25T04:04:25.438Z,65.18
2023-01-25T04:06:52.095Z,64.90
2023-01-25T04:09:18.761Z,65.13
2023-01-25T04:11:45.432Z,65.54
2023-01-25T04:14:12.075Z,64.93
2023-01-25T04:16:38.739Z,65.10
2023-01-25T04:19:05.428Z,65.18
2023-01-25T04:21:32.128Z,64.62
2023-01-25T04:23:58.854Z,64.03
2023-01-25T04:26:25.522Z,64.71
2023-01-25T04:28:52.181Z,64.50
2023-01-25T04:31:18.981Z,65.33
2023-01-25T04:33:45.698Z,64.25
2023-01-25T04:36:12.535Z,65.37
2023-01-25T04:38:39.268Z,65.01
2023-01-25T04:41:05.933Z,64.29
2023-01-25T04:43:32.676Z,64.35
2023-01-25T04:45:59.416Z,63.89
2023-01-25T04:48:26.119Z,64.59
2023-01-25T04:50:52.759Z,65.16
2023-01-25T04:53:19.404Z,64.85
2023-01-25T04:55:46.056Z,65.30
2023-01-25T04:58:12.695Z,66.35
2023-01-25T05:00:39.355Z,66.63
2023-01-25T05:03:06.160Z,65.59
2023-01-25T05:05:32.809Z,66.18
2023-01-25T05:07:59.516Z,66.28
2023-01-25T05:10:26.225Z,66.19
2023-01-25T05:12:52.933Z,66.13
2023-01-25T05:15:19.560Z,65.90
2023-01-25T05:17:46.268Z,66.54
2023-01-25T05:20:12.929Z,66.96
2023-01-25T05:22:39.613Z,66.59
2023-01-25T05:25:06.318Z,66.24
2023-01-25T05:27:33.033Z,67.25
2023-01-25T05:29:59.715Z,66.55
2023-01-25T05:32:26.435Z,65.70
2023-01-25T05:34:53.128Z,65.83
2023-01-25T05:37:19.818Z,65.21
2023-01-25T05:39:46.446Z,65.14
2023-01-25T05:42:13.091Z,64.97
2023-01-25T05:44:39.787Z,65.60
2023-01-25T05:47:06.445Z,65.21
2023-01-25T05:49:33.126Z,65.63
2023-01-25T05:51:59.771Z,65.44
2023-01-25T05:54:26.473Z,65.19
2023-01-25T05:56:53.100Z,65.44
2023-01-25T05:59:19.737Z,65.59
2023-01-25T06:01:46.432Z,65.76
2023-01-25T06:04:13.160Z,65.59
2023-01-25T06:06:39.860Z,65.70
2023-01-25T06:09:06.497Z,64.98
2023-01-25T06:11:33.194Z,65.59
2023-01-25T06:13:59.802Z,65.60
2023-01-25T06:16:26.558Z,65.37
2023-01-25T06:18:53.254Z,65.76
2023-01-25T06:21:19.929Z,66.37
2023-01-25T06:23:46.635Z,66.12
2023-01-25T06:26:13.327Z,66.29
2023-01-25T06:28:40.016Z,65.34
2023-01-25T06:31:06.771Z,65.75
2023-01-25T06:33:33.637Z,65.18
2023-01-25T06:36:00.291Z,65.28
2023-01-25T06:38:27.247Z,65.15
2023-01-25T06:40:53.934Z,65.79
2023-01-25T06:43:20.586Z,65.12
2023-01-25T06:45:47.300Z,65.72
2023-01-25T06:48:13.913Z,65.56
2023-01-25T06:50:40.611Z,65.79
2023-01-25T06:53:07.228Z,64.95
2023-01-25T06:55:33.870Z,65.40
2023-01-25T06:58:00.566Z,65.15
2023-01-25T07:00:27.243Z,66.05
2023-01-25T07:02:53.889Z,65.63
2023-01-25T07:05:20.545Z,65.73
2023-01-25T07:07:47.284Z,65.47
2023-01-25T07:10:13.925Z,66.09
2023-01-25T07:12:40.563Z,65.81
2023-01-25T07:15:07.744Z,65.63
2023-01-25T07:17:34.728Z,66.76
2023-01-25T07:20:01.346Z,66.29
2023-01-25T07:22:27.990Z,66.25
2023-01-25T07:24:54.639Z,65.85
2023-01-25T07:27:21.873Z,66.37
2023-01-25T07:29:48.540Z,65.65
2023-01-25T07:32:15.235Z,66.25
2023-01-25T07:34:41.860Z,66.41
2023-01-25T07:37:08.547Z,66.58
2023-01-25T07:39:35.178Z,65.71
2023-01-25T07:42:01.851Z,65.62
2023-01-25T07:44:28.530Z,65.91
2023-01-25T07:46:55.170Z,65.22
2023-01-25T07:49:21.839Z,65.60
2023-01-25T07:51:48.522Z,65.05
2023-01-25T07:54:15.225Z,65.52
2023-01-25T07:56:41.894Z,64.77
2023-01-25T07:59:08.628Z,64.93
2023-01-25T08:01:35.297Z,64.54
2023-01-25T08:04:02.079Z,64.49
2023-01-25T08:06:28.733Z,64.78
2023-01-25T08:08:55.388Z,64.05
2023-01-25T08:11:22.114Z,65.03
2023-01-25T08:13:48.749Z,64.71
2023-01-25T08:16:15.357Z,64.40
2023-01-25T08:18:42.002Z,64.14
2023-01-25T08:21:08.636Z,64.16
2023-01-25T08:23:35.331Z,64.49
2023-01-25T08:26:01.977Z,63.57
2023-01-25T08:28:28.655Z,63.97
2023-01-25T08:30:57.460Z,64.26
2023-01-25T08:33:24.372Z,64.67
2023-01-25T08:35:51.186Z,64.59
2023-01-25T08:38:17.821Z,64.97
2023-01-25T08:40:44.498Z,64.40
2023-01-25T08:43:11.139Z,64.27
2023-01-25T08:45:37.785Z,63.68
2023-01-25T08:48:04.471Z,63.55
2023-01-25T08:50:31.155Z,63.71
2023-01-25T08:52:57.920Z,63.70
2023-01-25T08:55:24.738Z,63.94
2023-01-25T08:57:51.416Z,63.81
2023-01-25T09:00:18.053Z,64.09
2023-01-25T09:02:44.709Z,64.61
2023-01-25T09:05:11.370Z,64.37
2023-01-25T09:07:38.006Z,63.94
2023-01-25T09:10:04.722Z,63.29
2023-01-25T09:12:31.443Z,64.30
2023-01-25T09:15:00.851Z,64.31
2023-01-25T09:17:29.920Z,64.68
2023-01-25T09:22:40.882Z,64.30
2023-01-25T09:25:07.578Z,63.82
2023-01-25T09:27:34.232Z,63.86
2023-01-25T09:30:03.084Z,63.93
2023-01-25T09:32:30.135Z,63.89
2023-01-25T09:34:57.206Z,63.98
2023-01-25T09:37:24.053Z,63.24
2023-01-25T09:39:50.778Z,63.01
2023-01-25T09:42:18.212Z,63.63
2023-01-25T09:44:45.745Z,63.51
2023-01-25T09:47:12.584Z,63.25
2023-01-25T09:49:39.261Z,62.80
2023-01-25T09:52:06.229Z,63.91
2023-01-25T09:54:42.260Z,63.36
2023-01-25T09:57:13.108Z,64.19
2023-01-25T09:59:39.989Z,64.60
2023-01-25T10:02:07.271Z,63.93
2023-01-25T10:04:34.141Z,63.77
2023-01-25T10:07:01.798Z,63.54
2023-01-25T10:09:28.827Z,63.14
2023-01-25T10:11:55.625Z,63.46
2023-01-25T10:14:22.424Z,63.39
2023-01-25T10:16:49.179Z,63.84
2023-01-25T10:19:16.341Z,63.89
2023-01-25T10:21:43.002Z,64.17
2023-01-25T10:24:09.939Z,63.75
2023-01-25T10:26:37.019Z,63.06
2023-01-25T10:29:03.823Z,62.77
2023-01-25T10:31:30.656Z,62.47
2023-01-25T10:33:57.625Z,62.97
2023-01-25T10:36:24.504Z,62.63
2023-01-25T10:38:51.173Z,62.87
2023-01-25T10:41:17.986Z,62.49
2023-01-25T10:43:45.138Z,61.45
2023-01-25T10:46:11.953Z,61.99
2023-01-25T10:48:38.760Z,62.41
2023-01-25T10:51:05.679Z,62.32
2023-01-25T10:53:32.494Z,63.25
2023-01-25T10:55:59.298Z,62.66
2023-01-25T10:58:26.061Z,62.84
2023-01-25T11:00:52.824Z,62.82
2023-01-25T11:03:19.647Z,62.28
2023-01-25T11:05:47.254Z,61.44
2023-01-25T11:08:13.938Z,62.01
2023-01-25T11:10:40.913Z,62.47
2023-01-25T11:13:07.725Z,61.40
2023-01-25T11:15:34.501Z,60.45
2023-01-25T11:18:01.248Z,61.19
2023-01-25T11:20:27.965Z,61.35
2023-01-25T11:22:54.811Z,61.20
2023-01-25T11:25:21.973Z,61.00
2023-01-25T11:27:48.731Z,60.60
2023-01-25T11:30:15.939Z,60.47
2023-01-25T11:32:42.747Z,60.42
2023-01-25T11:35:09.389Z,60.05
2023-01-25T11:37:36.284Z,60.29
2023-01-25T11:40:03.367Z,60.17
2023-01-25T11:42:30.064Z,60.05
2023-01-25T11:44:56.873Z,60.03
2023-01-25T11:47:23.591Z,60.07
2023-01-25T11:49:50.393Z,59.34
2023-01-25T11:52:17.210Z,59.83
2023-01-25T11:54:43.988Z,60.10
2023-01-25T11:57:10.650Z,60.12
2023-01-25T11:59:38.041Z,60.52
2023-01-25T12:02:04.746Z,60.59
2023-01-25T12:04:31.517Z,60.92
2023-01-25T12:06:58.277Z,60.82
2023-01-25T12:09:25.239Z,60.18
2023-01-25T12:11:52.013Z,60.21
2023-01-25T12:14:18.779Z,60.55
2023-01-25T12:16:45.732Z,61.89
2023-01-25T12:19:12.514Z,60.94
2023-01-25T12:21:39.186Z,60.94
2023-01-25T12:24:08.079Z,59.79
2023-01-25T12:26:34.791Z,60.74
2023-01-25T12:29:01.496Z,60.25
2023-01-25T12:31:28.377Z,60.24
2023-01-25T12:33:55.310Z,60.37
2023-01-25T12:36:22.043Z,60.69
2023-01-25T12:38:48.740Z,61.15
2023-01-25T12:41:15.633Z,60.63
2023-01-25T12:43:42.545Z,59.68
2023-01-25T12:46:09.289Z,60.57
2023-01-25T12:48:36.143Z,60.60
2023-01-25T12:51:02.818Z,60.32
2023-01-25T12:53:29.544Z,60.05
2023-01-25T12:55:56.388Z,60.33
2023-01-25T12:58:32.875Z,59.93
2023-01-25T13:01:04.011Z,59.08
2023-01-25T13:03:31.034Z,59.76
2023-01-25T13:05:57.708Z,60.16
2023-01-25T13:08:31.870Z,59.87
2023-01-25T13:10:59.281Z,59.59
2023-01-25T13:13:26.045Z,59.90
2023-01-25T13:15:52.893Z,59.47
2023-01-25T13:18:19.643Z,60.02
2023-01-25T13:20:46.736Z,58.95
2023-01-25T13:23:13.440Z,59.68
2023-01-25T13:25:40.133Z,59.91
2023-01-25T13:28:07.089Z,59.63
2023-01-25T13:30:34.012Z,58.95
2023-01-25T13:33:00.830Z,58.99
2023-01-25T13:35:27.563Z,59.59
2023-01-25T13:37:54.414Z,59.58
2023-01-25T13:40:21.121Z,59.22
2023-01-25T13:42:47.872Z,58.61
2023-01-25T13:45:14.567Z,59.58
2023-01-25T13:47:41.329Z,59.23
2023-01-25T13:50:08.748Z,58.98
2023-01-25T13:52:35.801Z,58.65
2023-01-25T13:55:02.606Z,58.23
2023-01-25T13:57:29.713Z,58.58
2023-01-25T14:00:02.064Z,58.19
2023-01-25T14:02:32.151Z,58.80
2023-01-25T14:04:59.059Z,59.04
2023-01-25T14:07:25.968Z,58.77
2023-01-25T14:09:52.724Z,58.61
2023-01-25T14:12:19.408Z,58.50
2023-01-25T14:14:46.309Z,58.00
2023-01-25T14:17:13.178Z,58.60
2023-01-25T14:19:39.827Z,58.61
2023-01-25T14:22:06.544Z,59.04
2023-01-25T14:24:33.419Z,59.04
2023-01-25T14:27:00.684Z,58.59
2023-01-25T14:29:34.589Z,59.39
2023-01-25T14:32:01.370Z,59.54
2023-01-25T14:34:28.156Z,59.80
2023-01-25T14:36:54.870Z,60.85
2023-01-25T14:39:21.509Z,60.93
2023-01-25T14:42:00.514Z,61.65
2023-01-25T14:44:28.485Z,62.37
2023-01-25T14:46:55.466Z,62.32
2023-01-25T14:49:22.242Z,61.66
2023-01-25T14:51:49.057Z,62.61
2023-01-25T14:54:15.959Z,63.39
2023-01-25T14:56:42.731Z,63.68
2023-01-25T14:59:10.553Z,63.44
2023-01-25T15:01:37.287Z,63.39
2023-01-25T15:04:04.018Z,63.36
2023-01-25T15:06:30.694Z,62.74
2023-01-25T15:08:58.574Z,62.62
2023-01-25T15:11:25.415Z,62.14
2023-01-25T15:13:52.150Z,62.18
2023-01-25T15:16:18.871Z,64.42
2023-01-25T15:18:46.049Z,65.16
2023-01-25T15:21:12.911Z,66.77
2023-01-25T15:23:39.589Z,65.97
2023-01-25T15:26:06.605Z,66.19
2023-01-25T15:28:33.629Z,65.40
2023-01-25T15:31:00.426Z,66.58
2023-01-25T15:33:27.262Z,65.91
2023-01-25T15:35:53.992Z,66.38
2023-01-25T15:38:20.769Z,66.52
2023-01-25T15:40:47.504Z,66.01
2023-01-25T15:43:14.227Z,65.71
2023-01-25T15:45:41.191Z,65.53
2023-01-25T15:48:07.930Z,66.00
2023-01-25T15:50:35.707Z,66.53
2023-01-25T15:53:02.398Z,67.24
2023-01-25T15:55:29.186Z,66.88
2023-01-25T15:57:55.916Z,66.76
2023-01-25T16:00:22.729Z,66.35
2023-01-25T16:02:49.422Z,65.94
2023-01-25T16:05:16.123Z,66.21
2023-01-25T16:07:42.885Z,65.62
2023-01-25T16:10:09.764Z,64.94
2023-01-25T16:12:36.676Z,64.76
2023-01-25T16:15:03.374Z,65.81
2023-01-25T16:17:30.025Z,65.48
2023-01-25T16:19:56.734Z,66.18
2023-01-25T16:22:23.466Z,66.17
2023-01-25T16:24:50.207Z,66.23
2023-01-25T16:27:16.928Z,67.71
2023-01-25T16:29:43.581Z,67.35
2023-01-25T16:32:10.396Z,67.93
2023-01-25T16:34:37.447Z,67.86
2023-01-25T16:37:04.558Z,67.44
2023-01-25T16:39:31.738Z,68.20
2023-01-25T16:41:58.917Z,67.46
2023-01-25T16:44:25.636Z,67.98
2023-01-25T16:46:52.346Z,67.79
2023-01-25T16:49:19.413Z,67.90
2023-01-25T16:51:46.192Z,66.59
2023-01-25T16:54:12.898Z,65.68
2023-01-25T16:56:39.592Z,66.30
2023-01-25T16:59:06.350Z,65.59
2023-01-25T17:01:33.175Z,65.12
2023-01-25T17:03:59.932Z,64.82
2023-01-25T17:06:26.651Z,65.25
2023-01-25T17:08:53.372Z,65.31
2023-01-25T17:11:20.098Z,64.90
2023-01-25T17:13:46.797Z,64.45
2023-01-25T17:16:13.619Z,64.82
2023-01-25T17:18:40.479Z,64.81
2023-01-25T17:21:07.203Z,64.67
2023-01-25T17:23:34.065Z,65.48
2023-01-25T17:26:00.754Z,66.33
2023-01-25T17:28:27.407Z,66.14
2023-01-25T17:30:54.740Z,65.97
2023-01-25T17:33:21.596Z,66.11
2023-01-25T17:35:48.521Z,65.99
2023-01-25T17:38:15.200Z,66.70
2023-01-25T17:40:41.916Z,66.50
2023-01-25T17:43:08.674Z,66.67
2023-01-25T17:45:36.390Z,66.31
2023-01-25T17:48:03.087Z,66.14
2023-01-25T17:50:29.846Z,66.88
2023-01-25T17:52:56.467Z,66.34
2023-01-25T17:55:23.135Z,65.56
2023-01-25T17:57:49.843Z,64.95
2023-01-25T18:00:16.549Z,65.09
2023-01-25T18:02:43.257Z,65.28
2023-01-25T18:05:09.997Z,64.92
2023-01-25T18:07:36.742Z,64.21
2023-01-25T18:10:03.493Z,64.63
2023-01-25T18:12:30.241Z,65.32
2023-01-25T18:14:56.954Z,66.02
2023-01-25T18:17:23.654Z,65.38
2023-01-25T18:19:50.329Z,65.50
2023-01-25T18:22:17.034Z,65.33
2023-01-25T18:24:43.804Z,64.98
2023-01-25T18:27:10.497Z,64.64
2023-01-25T18:29:37.213Z,64.36
2023-01-25T18:32:03.959Z,64.30
2023-01-25T18:34:30.686Z,64.32
2023-01-25T18:36:57.380Z,63.63
2023-01-25T18:39:24.063Z,64.00
2023-01-25T18:41:50.786Z,63.81
2023-01-25T18:44:17.567Z,64.61
2023-01-25T18:46:44.421Z,63.92
2023-01-25T18:49:11.224Z,64.44
2023-01-25T18:51:58.851Z,64.39
2023-01-25T18:54:24.646Z,63.72
2023-01-25T18:56:51.337Z,63.94
2023-01-25T18:59:18.040Z,63.65
2023-01-25T19:01:44.835Z,63.55
2023-01-25T19:04:11.591Z,63.82
2023-01-25T19:06:38.359Z,64.16
2023-01-25T19:09:05.101Z,64.57
2023-01-25T19:11:31.801Z,64.30
2023-01-25T19:13:58.426Z,63.73
2023-01-25T19:16:25.173Z,64.20
2023-01-25T19:18:51.843Z,63.94
2023-01-25T19:21:18.507Z,64.02
2023-01-25T19:23:45.205Z,63.80
2023-01-25T19:26:11.915Z,63.62
2023-01-25T19:28:38.611Z,63.98
2023-01-25T19:31:05.414Z,63.93
2023-01-25T19:33:32.181Z,63.80
2023-01-25T19:35:58.908Z,63.41
2023-01-25T19:38:25.653Z,63.25
2023-01-25T19:40:52.399Z,63.23
2023-01-25T19:43:19.163Z,63.98
2023-01-25T19:45:45.826Z,63.66
2023-01-25T19:48:12.579Z,63.32
2023-01-25T19:50:39.376Z,63.78
2023-01-25T19:53:05.995Z,63.54
2023-01-25T19:55:32.719Z,63.23
2023-01-25T19:57:59.371Z,63.52
2023-01-25T20:00:26.114Z,63.47
2023-01-25T20:02:52.914Z,63.33
2023-01-25T20:05:19.635Z,63.29
2023-01-25T20:07:46.357Z,63.66
2023-01-25T20:10:13.291Z,63.37
2023-01-25T20:12:39.996Z,63.78
2023-01-25T20:15:06.660Z,63.23
2023-01-25T20:17:33.339Z,63.08
2023-01-25T20:19:59.994Z,64.20
2023-01-25T20:22:26.684Z,63.81
2023-01-25T20:24:53.422Z,63.21
2023-01-25T20:27:20.152Z,63.31
2023-01-25T20:29:46.828Z,63.18
2023-01-25T20:32:30.590Z,63.73
2023-01-25T20:34:58.415Z,63.26
2023-01-25T20:37:25.192Z,63.38
2023-01-25T20:39:51.863Z,63.72
2023-01-25T20:42:18.576Z,63.32
2023-01-25T20:44:45.295Z,63.13
2023-01-25T20:47:11.959Z,63.54
2023-01-25T20:49:38.669Z,62.87
2023-01-25T20:52:05.379Z,63.11
2023-01-25T20:54:32.054Z,63.18
2023-01-25T20:56:58.734Z,63.50
2023-01-25T20:59:25.539Z,63.03
2023-01-25T21:01:52.253Z,62.56
2023-01-25T21:04:18.996Z,62.75
2023-01-25T21:06:45.665Z,63.17
2023-01-25T21:09:12.361Z,63.53
2023-01-25T21:11:39.084Z,63.19
2023-01-25T21:14:05.828Z,63.00
2023-01-25T21:16:32.767Z,62.73
2023-01-25T21:18:59.496Z,62.20
2023-01-25T21:21:26.301Z,63.21
2023-01-25T21:23:53.082Z,62.96
2023-01-25T21:26:19.834Z,62.91
2023-01-25T21:28:46.549Z,62.81
2023-01-25T21:31:13.376Z,62.74
2023-01-25T21:33:40.168Z,62.36
2023-01-25T21:36:06.936Z,62.96
2023-01-25T21:38:33.756Z,62.86
2023-01-25T21:41:00.380Z,63.01
2023-01-25T21:43:27.160Z,63.02
2023-01-25T21:45:53.893Z,63.01
2023-01-25T21:48:20.617Z,62.96
2023-01-25T21:50:47.356Z,62.73
2023-01-25T21:53:14.067Z,63.37
2023-01-25T21:55:40.775Z,63.16
2023-01-25T21:58:07.495Z,63.26
2023-01-25T22:00:34.240Z,63.04
2023-01-25T22:03:00.870Z,62.99
2023-01-25T22:05:27.615Z,62.87
2023-01-25T22:07:54.311Z,62.96
2023-01-25T22:10:21.004Z,62.42
2023-01-25T22:12:47.688Z,62.97
2023-01-25T22:15:14.459Z,63.17
2023-01-25T22:17:41.246Z,62.58
2023-01-25T22:20:08.268Z,62.59
2023-01-25T22:22:35.096Z,62.61
2023-01-25T22:25:01.881Z,62.53
2023-01-25T22:27:28.574Z,62.46
2023-01-25T22:29:55.259Z,62.66
2023-01-25T22:32:21.970Z,62.80
2023-01-25T22:34:48.585Z,62.90
2023-01-25T22:37:15.338Z,62.78
2023-01-25T22:39:42.119Z,63.41
2023-01-25T22:42:08.829Z,63.28
2023-01-25T22:44:35.467Z,63.16
2023-01-25T22:47:02.276Z,63.15
2023-01-25T22:49:28.976Z,63.13
2023-01-25T22:51:55.624Z,63.69
2023-01-25T22:54:22.371Z,63.73
2023-01-25T22:56:49.059Z,63.37
2023-01-25T22:59:15.753Z,63.34
2023-01-25T23:01:42.517Z,63.59
2023-01-25T23:04:09.255Z,63.47
2023-01-25T23:06:35.963Z,63.68
2023-01-25T23:09:02.694Z,63.58
2023-01-25T23:11:29.354Z,63.85
2023-01-25T23:13:56.103Z,63.77
2023-01-25T23:16:22.733Z,62.75
2023-01-25T23:18:49.515Z,63.03
2023-01-25T23:21:16.359Z,63.32
2023-01-25T23:23:43.090Z,62.95
2023-01-25T23:26:09.854Z,62.64
2023-01-25T23:28:37.317Z,62.80
2023-01-25T23:31:04.122Z,62.43
2023-01-25T23:33:30.874Z,63.02
2023-01-25T23:35:57.555Z,62.77
2023-01-25T23:38:24.191Z,63.13
2023-01-25T23:40:51.073Z,63.11
2023-01-25T23:43:17.707Z,63.10
2023-01-25T23:45:44.489Z,62.77
2023-01-25T23:48:11.251Z,62.54
2023-01-25T23:50:37.995Z,63.01
2023-01-25T23:53:04.750Z,62.69
2023-01-25T23:55:31.425Z,63.96
2023-01-25T23:57:58.184Z,62.89
